sensor_id;sensor_type;location;lat;lon;timestamp;pressure;altitude;pressure_sealevel;temperature;humidity
14885;BME280;7534;50.762;7.000;2022-12-07T00:01:16;147674.38;;;5.64;100.00
14885;BME280;7534;50.762;7.000;2022-12-07T00:03:44;147652.22;;;5.56;100.00
14885;BME280;7534;50.762;7.000;2022-12-07T00:06:13;147670.44;;;5.63;100.00
14885;BME280;7534;50.762;7.000;2022-12-07T00:08:39;147645.69;;;5.53;100.00
14885;BME280;7534;50.762;7.000;2022-12-07T00:11:16;147665.22;;;5.61;100.00
14885;BME280;7534;50.762;7.000;2022-12-07T00:13:43;147660.03;;;5.59;100.00
14885;BME280;7534;50.762;7.000;2022-12-07T00:16:14;147666.53;;;5.61;100.00
14885;BME280;7534;50.762;7.000;2022-12-07T00:18:42;147680.88;;;5.67;100.00
14885;BME280;7534;50.762;7.000;2022-12-07T00:21:18;147683.47;;;5.68;100.00
14885;BME280;7534;50.762;7.000;2022-12-07T00:23:46;147673.06;;;5.64;100.00
14885;BME280;7534;50.762;7.000;2022-12-07T00:28:50;147683.47;;;5.68;100.00
14885;BME280;7534;50.762;7.000;2022-12-07T00:31:19;147684.75;;;5.68;100.00
14885;BME280;7534;50.762;7.000;2022-12-07T00:33:46;147721.28;;;5.83;100.00
14885;BME280;7534;50.762;7.000;2022-12-07T00:36:18;147696.50;;;5.73;100.00
14885;BME280;7534;50.762;7.000;2022-12-07T00:38:45;147678.28;;;5.66;100.00
14885;BME280;7534;50.762;7.000;2022-12-07T00:41:14;147688.69;;;5.70;100.00
14885;BME280;7534;50.762;7.000;2022-12-07T00:43:42;147705.59;;;5.76;100.00
14885;BME280;7534;50.762;7.000;2022-12-07T00:46:08;147716.06;;;5.81;100.00
14885;BME280;7534;50.762;7.000;2022-12-07T00:48:35;147726.47;;;5.85;100.00
14885;BME280;7534;50.762;7.000;2022-12-07T00:51:01;147739.56;;;5.90;100.00
14885;BME280;7534;50.762;7.000;2022-12-07T00:53:27;147735.66;;;5.88;100.00
14885;BME280;7534;50.762;7.000;2022-12-07T00:55:53;147712.13;;;5.79;100.00
14885;BME280;7534;50.762;7.000;2022-12-07T00:58:20;147665.22;;;5.61;100.00
14885;BME280;7534;50.762;7.000;2022-12-07T01:00:46;147635.28;;;5.49;100.00
14885;BME280;7534;50.762;7.000;2022-12-07T01:03:17;147617.06;;;5.42;100.00
14885;BME280;7534;50.762;7.000;2022-12-07T01:05:54;147627.44;;;5.46;100.00
14885;BME280;7534;50.762;7.000;2022-12-07T01:08:21;147636.59;;;5.50;100.00
14885;BME280;7534;50.762;7.000;2022-12-07T01:10:47;147660.03;;;5.59;100.00
14885;BME280;7534;50.762;7.000;2022-12-07T01:13:14;147663.91;;;5.60;100.00
14885;BME280;7534;50.762;7.000;2022-12-07T01:15:44;147679.59;;;5.66;100.00
14885;BME280;7534;50.762;7.000;2022-12-07T01:18:11;147706.91;;;5.77;100.00
14885;BME280;7534;50.762;7.000;2022-12-07T01:20:37;147687.38;;;5.69;100.00
14885;BME280;7534;50.762;7.000;2022-12-07T01:23:03;147699.13;;;5.74;100.00
14885;BME280;7534;50.762;7.000;2022-12-07T01:25:29;147675.66;;;5.65;100.00
14885;BME280;7534;50.762;7.000;2022-12-07T01:27:54;147678.28;;;5.66;100.00
14885;BME280;7534;50.762;7.000;2022-12-07T01:30:20;147684.75;;;5.68;100.00
14885;BME280;7534;50.762;7.000;2022-12-07T01:32:46;147709.53;;;5.78;100.00
14885;BME280;7534;50.762;7.000;2022-12-07T01:35:11;147725.16;;;5.84;100.00
14885;BME280;7534;50.762;7.000;2022-12-07T01:37:38;147718.66;;;5.82;100.00
14885;BME280;7534;50.762;7.000;2022-12-07T01:40:06;147719.97;;;5.82;100.00
14885;BME280;7534;50.762;7.000;2022-12-07T01:42:33;147716.06;;;5.81;100.00
14885;BME280;7534;50.762;7.000;2022-12-07T01:47:51;147748.66;;;5.93;100.00
14885;BME280;7534;50.762;7.000;2022-12-07T01:50:20;147768.22;;;6.01;100.00
14885;BME280;7534;50.762;7.000;2022-12-07T01:52:50;147770.81;;;6.02;100.00
14885;BME280;7534;50.762;7.000;2022-12-07T01:55:18;147778.66;;;6.05;100.00
14885;BME280;7534;50.762;7.000;2022-12-07T01:57:49;147772.13;;;6.02;100.00
14885;BME280;7534;50.762;7.000;2022-12-07T02:00:17;147755.19;;;5.96;100.00
14885;BME280;7534;50.762;7.000;2022-12-07T02:03:12;147721.28;;;5.83;100.00
14885;BME280;7534;50.762;7.000;2022-12-07T02:05:41;147700.44;;;5.74;100.00
14885;BME280;7534;50.762;7.000;2022-12-07T02:08:10;147730.38;;;5.86;100.00
14885;BME280;7534;50.762;7.000;2022-12-07T02:10:37;147739.56;;;5.90;100.00
14885;BME280;7534;50.762;7.000;2022-12-07T02:13:10;147722.59;;;5.83;100.00
14885;BME280;7534;50.762;7.000;2022-12-07T02:16:14;147708.22;;;5.78;100.00
14885;BME280;7534;50.762;7.000;2022-12-07T02:24:52;147691.28;;;5.71;100.00
14885;BME280;7534;50.762;7.000;2022-12-07T02:27:58;147739.56;;;5.90;100.00
14885;BME280;7534;50.762;7.000;2022-12-07T02:30:33;147746.06;;;5.92;100.00
14885;BME280;7534;50.762;7.000;2022-12-07T02:33:25;147716.06;;;5.81;100.00
14885;BME280;7534;50.762;7.000;2022-12-07T02:36:05;147723.91;;;5.84;100.00
14885;BME280;7534;50.762;7.000;2022-12-07T02:38:58;147729.06;;;5.86;100.00
14885;BME280;7534;50.762;7.000;2022-12-07T02:41:49;147729.06;;;5.86;100.00
14885;BME280;7534;50.762;7.000;2022-12-07T02:44:24;147740.88;;;5.90;100.00
14885;BME280;7534;50.762;7.000;2022-12-07T02:47:01;147726.47;;;5.85;100.00
14885;BME280;7534;50.762;7.000;2022-12-07T02:49:29;147722.59;;;5.83;100.00
14885;BME280;7534;50.762;7.000;2022-12-07T02:51:55;147749.97;;;5.94;100.00
14885;BME280;7534;50.762;7.000;2022-12-07T02:54:21;147765.66;;;6.00;100.00
14885;BME280;7534;50.762;7.000;2022-12-07T02:57:14;147749.97;;;5.94;100.00
14885;BME280;7534;50.762;7.000;2022-12-07T03:00:17;147757.81;;;5.97;100.00
14885;BME280;7534;50.762;7.000;2022-12-07T03:02:54;147764.34;;;5.99;100.00
14885;BME280;7534;50.762;7.000;2022-12-07T03:08:03;147751.28;;;5.94;100.00
14885;BME280;7534;50.762;7.000;2022-12-07T03:10:54;147748.66;;;5.93;100.00
14885;BME280;7534;50.762;7.000;2022-12-07T03:14:00;147747.34;;;5.93;100.00
14885;BME280;7534;50.762;7.000;2022-12-07T03:16:43;147765.66;;;6.00;100.00
14885;BME280;7534;50.762;7.000;2022-12-07T03:19:17;147763.03;;;5.99;100.00
14885;BME280;7534;50.762;7.000;2022-12-07T03:22:12;147766.91;;;6.00;100.00
14885;BME280;7534;50.762;7.000;2022-12-07T03:24:44;147778.66;;;6.05;100.00
14885;BME280;7534;50.762;7.000;2022-12-07T03:27:21;147759.13;;;5.97;100.00
14885;BME280;7534;50.762;7.000;2022-12-07T03:32:41;147734.34;;;5.88;100.00
14885;BME280;7534;50.762;7.000;2022-12-07T03:35:23;147739.56;;;5.90;100.00
14885;BME280;7534;50.762;7.000;2022-12-07T03:38:05;147733.00;;;5.87;100.00
14885;BME280;7534;50.762;7.000;2022-12-07T03:40:44;147755.19;;;5.96;100.00
14885;BME280;7534;50.762;7.000;2022-12-07T03:43:12;147726.47;;;5.85;100.00
14885;BME280;7534;50.762;7.000;2022-12-07T03:45:43;147739.56;;;5.90;100.00
14885;BME280;7534;50.762;7.000;2022-12-07T03:48:32;147712.13;;;5.79;100.00
14885;BME280;7534;50.762;7.000;2022-12-07T03:54:19;147759.13;;;5.97;100.00
14885;BME280;7534;50.762;7.000;2022-12-07T03:56:48;147729.06;;;5.86;100.00
14885;BME280;7534;50.762;7.000;2022-12-07T03:59:16;147749.97;;;5.94;100.00
14885;BME280;7534;50.762;7.000;2022-12-07T04:01:51;147738.25;;;5.89;100.00
14885;BME280;7534;50.762;7.000;2022-12-07T04:04:18;147722.59;;;5.83;100.00
14885;BME280;7534;50.762;7.000;2022-12-07T04:06:43;147729.06;;;5.86;100.00
14885;BME280;7534;50.762;7.000;2022-12-07T04:09:09;147744.78;;;5.92;100.00
14885;BME280;7534;50.762;7.000;2022-12-07T04:11:35;147752.59;;;5.95;100.00
14885;BME280;7534;50.762;7.000;2022-12-07T04:14:00;147759.13;;;5.97;100.00
14885;BME280;7534;50.762;7.000;2022-12-07T04:16:51;147730.38;;;5.86;100.00
14885;BME280;7534;50.762;7.000;2022-12-07T04:19:20;147713.44;;;5.80;100.00
14885;BME280;7534;50.762;7.000;2022-12-07T04:21:47;147712.13;;;5.79;100.00
14885;BME280;7534;50.762;7.000;2022-12-07T04:24:14;147716.06;;;5.81;100.00
14885;BME280;7534;50.762;7.000;2022-12-07T04:26:41;147700.44;;;5.74;100.00
14885;BME280;7534;50.762;7.000;2022-12-07T04:34:11;147644.38;;;5.53;100.00
14885;BME280;7534;50.762;7.000;2022-12-07T04:36:39;147648.28;;;5.54;100.00
14885;BME280;7534;50.762;7.000;2022-12-07T04:39:08;147676.97;;;5.65;100.00
14885;BME280;7534;50.762;7.000;2022-12-07T04:41:35;147654.81;;;5.57;100.00
14885;BME280;7534;50.762;7.000;2022-12-07T04:44:03;147688.69;;;5.70;100.00
14885;BME280;7534;50.762;7.000;2022-12-07T04:46:33;147658.75;;;5.58;100.00
14885;BME280;7534;50.762;7.000;2022-12-07T04:48:59;147695.22;;;5.72;100.00
14885;BME280;7534;50.762;7.000;2022-12-07T04:51:27;147676.97;;;5.65;100.00
14885;BME280;7534;50.762;7.000;2022-12-07T04:53:55;147687.38;;;5.69;100.00
14885;BME280;7534;50.762;7.000;2022-12-07T04:56:22;147680.88;;;5.67;100.00
14885;BME280;7534;50.762;7.000;2022-12-07T04:58:51;147626.16;;;5.46;100.00
14885;BME280;7534;50.762;7.000;2022-12-07T05:01:18;147611.84;;;5.40;100.00
14885;BME280;7534;50.762;7.000;2022-12-07T05:03:44;147624.84;;;5.45;100.00
14885;BME280;7534;50.762;7.000;2022-12-07T05:06:11;147611.84;;;5.40;100.00
14885;BME280;7534;50.762;7.000;2022-12-07T05:08:37;147580.53;;;5.28;100.00
14885;BME280;7534;50.762;7.000;2022-12-07T05:11:05;147580.53;;;5.28;100.00
14885;BME280;7534;50.762;7.000;2022-12-07T05:13:32;147580.53;;;5.28;100.00
14885;BME280;7534;50.762;7.000;2022-12-07T05:15:58;147567.53;;;5.23;100.00
14885;BME280;7534;50.762;7.000;2022-12-07T05:18:25;147585.78;;;5.30;100.00
14885;BME280;7534;50.762;7.000;2022-12-07T05:20:51;147563.63;;;5.21;100.00
14885;BME280;7534;50.762;7.000;2022-12-07T05:23:18;147536.31;;;5.11;100.00
14885;BME280;7534;50.762;7.000;2022-12-07T05:25:44;147520.66;;;5.05;100.00
14885;BME280;7534;50.762;7.000;2022-12-07T05:28:10;147516.72;;;5.03;100.00
14885;BME280;7534;50.762;7.000;2022-12-07T05:30:36;147511.56;;;5.01;100.00
14885;BME280;7534;50.762;7.000;2022-12-07T05:33:03;147524.56;;;5.06;100.00
14885;BME280;7534;50.762;7.000;2022-12-07T05:35:29;147501.13;;;4.97;100.00
14885;BME280;7534;50.762;7.000;2022-12-07T05:37:55;147518.03;;;5.04;100.00
14885;BME280;7534;50.762;7.000;2022-12-07T05:40:22;147540.19;;;5.12;100.00
14885;BME280;7534;50.762;7.000;2022-12-07T05:42:49;147529.78;;;5.08;100.00
14885;BME280;7534;50.762;7.000;2022-12-07T05:45:15;147520.66;;;5.05;100.00
14885;BME280;7534;50.762;7.000;2022-12-07T05:47:41;147535.00;;;5.10;100.00
14885;BME280;7534;50.762;7.000;2022-12-07T05:50:09;147520.66;;;5.05;100.00
14885;BME280;7534;50.762;7.000;2022-12-07T05:52:35;147512.88;;;5.02;100.00
14885;BME280;7534;50.762;7.000;2022-12-07T05:55:06;147521.97;;;5.05;100.00
14885;BME280;7534;50.762;7.000;2022-12-07T05:57:41;147544.09;;;5.14;100.00
14885;BME280;7534;50.762;7.000;2022-12-07T06:00:27;147515.47;;;5.03;100.00
14885;BME280;7534;50.762;7.000;2022-12-07T06:02:52;147533.69;;;5.10;100.00
14885;BME280;7534;50.762;7.000;2022-12-07T06:05:18;147538.88;;;5.12;100.00
14885;BME280;7534;50.762;7.000;2022-12-07T06:07:44;147529.78;;;5.08;100.00
14885;BME280;7534;50.762;7.000;2022-12-07T06:10:11;147536.31;;;5.11;100.00
14885;BME280;7534;50.762;7.000;2022-12-07T06:12:36;147572.75;;;5.25;100.00
14885;BME280;7534;50.762;7.000;2022-12-07T06:15:05;147564.94;;;5.22;100.00
14885;BME280;7534;50.762;7.000;2022-12-07T06:17:33;147574.06;;;5.25;100.00
14885;BME280;7534;50.762;7.000;2022-12-07T06:20:03;147564.94;;;5.22;100.00
14885;BME280;7534;50.762;7.000;2022-12-07T06:22:31;147596.22;;;5.34;100.00
14885;BME280;7534;50.762;7.000;2022-12-07T06:24:59;147619.66;;;5.43;100.00
14885;BME280;7534;50.762;7.000;2022-12-07T06:27:27;147613.13;;;5.41;100.00
14885;BME280;7534;50.762;7.000;2022-12-07T06:29:53;147606.63;;;5.38;100.00
14885;BME280;7534;50.762;7.000;2022-12-07T06:32:19;147605.31;;;5.37;100.00
14885;BME280;7534;50.762;7.000;2022-12-07T06:34:47;147584.47;;;5.29;100.00
14885;BME280;7534;50.762;7.000;2022-12-07T06:37:18;147575.38;;;5.26;100.00
14885;BME280;7534;50.762;7.000;2022-12-07T06:39:44;147548.00;;;5.15;100.00
14885;BME280;7534;50.762;7.000;2022-12-07T06:42:12;147548.00;;;5.15;100.00
14885;BME280;7534;50.762;7.000;2022-12-07T06:44:37;147528.47;;;5.08;100.00
14885;BME280;7534;50.762;7.000;2022-12-07T06:47:03;147505.03;;;4.98;100.00
14885;BME280;7534;50.762;7.000;2022-12-07T06:49:30;147501.13;;;4.97;100.00
14885;BME280;7534;50.762;7.000;2022-12-07T06:51:56;147507.66;;;4.99;100.00
14885;BME280;7534;50.762;7.000;2022-12-07T06:54:22;147505.03;;;4.98;100.00
14885;BME280;7534;50.762;7.000;2022-12-07T06:56:48;147497.22;;;4.95;100.00
14885;BME280;7534;50.762;7.000;2022-12-07T06:59:14;147484.22;;;4.90;100.00
14885;BME280;7534;50.762;7.000;2022-12-07T07:01:40;147497.22;;;4.95;100.00
14885;BME280;7534;50.762;7.000;2022-12-07T07:04:05;147502.44;;;4.97;100.00
14885;BME280;7534;50.762;7.000;2022-12-07T07:06:32;147514.19;;;5.02;100.00
14885;BME280;7534;50.762;7.000;2022-12-07T07:08:58;147544.09;;;5.14;100.00
14885;BME280;7534;50.762;7.000;2022-12-07T07:11:24;147541.47;;;5.13;100.00
14885;BME280;7534;50.762;7.000;2022-12-07T07:13:50;147538.88;;;5.12;100.00
14885;BME280;7534;50.762;7.000;2022-12-07T07:16:15;147540.19;;;5.12;100.00
14885;BME280;7534;50.762;7.000;2022-12-07T07:18:41;147537.56;;;5.11;100.00
14885;BME280;7534;50.762;7.000;2022-12-07T07:21:07;147546.72;;;5.15;100.00
14885;BME280;7534;50.762;7.000;2022-12-07T07:23:33;147562.31;;;5.21;100.00
14885;BME280;7534;50.762;7.000;2022-12-07T07:25:59;147538.88;;;5.12;100.00
14885;BME280;7534;50.762;7.000;2022-12-07T07:28:25;147533.69;;;5.10;100.00
14885;BME280;7534;50.762;7.000;2022-12-07T07:30:52;147536.31;;;5.11;100.00
14885;BME280;7534;50.762;7.000;2022-12-07T07:33:18;147536.31;;;5.11;100.00
14885;BME280;7534;50.762;7.000;2022-12-07T07:35:45;147554.53;;;5.18;100.00
14885;BME280;7534;50.762;7.000;2022-12-07T07:38:11;147585.78;;;5.30;100.00
14885;BME280;7534;50.762;7.000;2022-12-07T07:40:55;147588.38;;;5.31;100.00
14885;BME280;7534;50.762;7.000;2022-12-07T07:43:22;147577.97;;;5.27;100.00
14885;BME280;7534;50.762;7.000;2022-12-07T07:45:48;147604.00;;;5.37;100.00
14885;BME280;7534;50.762;7.000;2022-12-07T07:48:13;147609.22;;;5.39;100.00
14885;BME280;7534;50.762;7.000;2022-12-07T07:50:41;147611.84;;;5.40;100.00
14885;BME280;7534;50.762;7.000;2022-12-07T07:53:07;147604.00;;;5.37;100.00
14885;BME280;7534;50.762;7.000;2022-12-07T07:55:36;147628.75;;;5.47;100.00
14885;BME280;7534;50.762;7.000;2022-12-07T07:58:01;147643.06;;;5.52;100.00
14885;BME280;7534;50.762;7.000;2022-12-07T08:00:30;147650.91;;;5.55;100.00
14885;BME280;7534;50.762;7.000;2022-12-07T08:02:56;147627.44;;;5.46;100.00
14885;BME280;7534;50.762;7.000;2022-12-07T08:05:22;147640.50;;;5.51;100.00
14885;BME280;7534;50.762;7.000;2022-12-07T08:07:55;147636.59;;;5.50;100.00
14885;BME280;7534;50.762;7.000;2022-12-07T08:10:24;147619.66;;;5.43;100.00
14885;BME280;7534;50.762;7.000;2022-12-07T08:12:50;147597.53;;;5.34;100.00
14885;BME280;7534;50.762;7.000;2022-12-07T08:15:47;147570.16;;;5.24;100.00
14885;BME280;7534;50.762;7.000;2022-12-07T08:18:14;147551.94;;;5.17;100.00
14885;BME280;7534;50.762;7.000;2022-12-07T08:20:44;147549.31;;;5.16;100.00
14885;BME280;7534;50.762;7.000;2022-12-07T08:23:13;147546.72;;;5.15;100.00
14885;BME280;7534;50.762;7.000;2022-12-07T08:25:41;147564.94;;;5.22;100.00
14885;BME280;7534;50.762;7.000;2022-12-07T08:28:07;147564.94;;;5.22;100.00
14885;BME280;7534;50.762;7.000;2022-12-07T08:30:33;147609.22;;;5.39;100.00
14885;BME280;7534;50.762;7.000;2022-12-07T08:32:59;147635.28;;;5.49;100.00
14885;BME280;7534;50.762;7.000;2022-12-07T08:35:26;147635.28;;;5.49;100.00
14885;BME280;7534;50.762;7.000;2022-12-07T08:37:53;147680.88;;;5.67;100.00
14885;BME280;7534;50.762;7.000;2022-12-07T08:40:21;147718.66;;;5.82;100.00
14885;BME280;7534;50.762;7.000;2022-12-07T08:42:51;147783.88;;;6.07;100.00
14885;BME280;7534;50.762;7.000;2022-12-07T08:45:18;147819.06;;;6.21;100.00
14885;BME280;7534;50.762;7.000;2022-12-07T08:47:55;147841.22;;;6.29;100.00
14885;BME280;7534;50.762;7.000;2022-12-07T08:50:24;147839.91;;;6.29;100.00
14885;BME280;7534;50.762;7.000;2022-12-07T08:52:57;147862.09;;;6.37;100.00
14885;BME280;7534;50.762;7.000;2022-12-07T08:55:23;147849.06;;;6.32;100.00
14885;BME280;7534;50.762;7.000;2022-12-07T08:57:51;147812.53;;;6.18;100.00
14885;BME280;7534;50.762;7.000;2022-12-07T09:00:17;147756.50;;;5.96;100.00
14885;BME280;7534;50.762;7.000;2022-12-07T09:02:46;147757.81;;;5.97;100.00
14885;BME280;7534;50.762;7.000;2022-12-07T09:05:13;147846.44;;;6.31;100.00
14885;BME280;7534;50.762;7.000;2022-12-07T09:07:45;147897.28;;;6.51;100.00
14885;BME280;7534;50.762;7.000;2022-12-07T09:10:11;147976.81;;;6.82;100.00
14885;BME280;7534;50.762;7.000;2022-12-07T09:12:37;148029.00;;;7.02;100.00
14885;BME280;7534;50.762;7.000;2022-12-07T09:15:03;148081.16;;;7.22;100.00
14885;BME280;7534;50.762;7.000;2022-12-07T09:17:33;148109.91;;;7.34;100.00
14885;BME280;7534;50.762;7.000;2022-12-07T09:20:00;148126.84;;;7.40;100.00
14885;BME280;7534;50.762;7.000;2022-12-07T09:22:29;148113.81;;;7.35;99.70
14885;BME280;7534;50.762;7.000;2022-12-07T09:24:57;148102.06;;;7.31;99.55
14885;BME280;7534;50.762;7.000;2022-12-07T09:27:23;148113.81;;;7.35;98.71
14885;BME280;7534;50.762;7.000;2022-12-07T09:29:49;148108.59;;;7.33;98.34
14885;BME280;7534;50.762;7.000;2022-12-07T09:32:15;148104.66;;;7.32;98.12
14885;BME280;7534;50.762;7.000;2022-12-07T09:34:42;148091.63;;;7.26;98.45
14885;BME280;7534;50.762;7.000;2022-12-07T09:37:08;148100.75;;;7.30;99.04
14885;BME280;7534;50.762;7.000;2022-12-07T09:39:40;148102.06;;;7.31;98.47
14885;BME280;7534;50.762;7.000;2022-12-07T09:42:08;148040.72;;;7.07;98.18
14885;BME280;7534;50.762;7.000;2022-12-07T09:44:36;148027.72;;;7.02;98.58
14885;BME280;7534;50.762;7.000;2022-12-07T09:47:02;148062.91;;;7.15;99.25
14885;BME280;7534;50.762;7.000;2022-12-07T09:49:31;148162.13;;;7.54;98.88
14885;BME280;7534;50.762;7.000;2022-12-07T09:52:17;148188.19;;;7.64;97.20
14885;BME280;7534;50.762;7.000;2022-12-07T09:54:49;148155.56;;;7.51;97.10
14885;BME280;7534;50.762;7.000;2022-12-07T09:57:17;148176.47;;;7.59;97.90
14885;BME280;7534;50.762;7.000;2022-12-07T09:59:43;148213.00;;;7.74;97.07
14885;BME280;7534;50.762;7.000;2022-12-07T10:02:34;148164.69;;;7.55;96.73
14885;BME280;7534;50.762;7.000;2022-12-07T10:05:01;148129.47;;;7.41;97.46
14885;BME280;7534;50.762;7.000;2022-12-07T10:07:29;148171.22;;;7.57;97.97
14885;BME280;7534;50.762;7.000;2022-12-07T10:09:55;148138.63;;;7.45;96.80
14885;BME280;7534;50.762;7.000;2022-12-07T10:12:21;148155.56;;;7.51;97.08
14885;BME280;7534;50.762;7.000;2022-12-07T10:15:02;148124.25;;;7.39;97.04
14885;BME280;7534;50.762;7.000;2022-12-07T10:17:37;148168.63;;;7.56;97.41
14885;BME280;7534;50.762;7.000;2022-12-07T10:20:26;148141.25;;;7.46;97.04
14885;BME280;7534;50.762;7.000;2022-12-07T10:23:00;148186.88;;;7.63;97.20
14885;BME280;7534;50.762;7.000;2022-12-07T10:25:35;148202.59;;;7.70;96.79
14885;BME280;7534;50.762;7.000;2022-12-07T10:30:59;148250.84;;;7.88;93.33
14885;BME280;7534;50.762;7.000;2022-12-07T10:33:36;148324.00;;;8.17;93.72
14885;BME280;7534;50.762;7.000;2022-12-07T10:36:34;148384.13;;;8.40;92.38
14885;BME280;7534;50.762;7.000;2022-12-07T10:43:20;148365.84;;;8.33;90.48
14885;BME280;7534;50.762;7.000;2022-12-07T10:52:42;148462.47;;;8.70;87.46
14885;BME280;7534;50.762;7.000;2022-12-07T10:55:48;148428.53;;;8.57;86.03
14885;BME280;7534;50.762;7.000;2022-12-07T10:58:41;148350.13;;;8.27;87.72
14885;BME280;7534;50.762;7.000;2022-12-07T11:30:03;148316.13;;;8.14;86.54
14885;BME280;7534;50.762;7.000;2022-12-07T11:37:02;148304.41;;;8.09;88.09
14885;BME280;7534;50.762;7.000;2022-12-07T11:51:03;148603.59;;;9.25;78.26
14885;BME280;7534;50.762;7.000;2022-12-07T11:54:45;148607.53;;;9.27;79.78
14885;BME280;7534;50.762;7.000;2022-12-07T11:57:57;148487.31;;;8.80;80.06
14885;BME280;7534;50.762;7.000;2022-12-07T12:07:50;148438.97;;;8.61;80.48
14885;BME280;7534;50.762;7.000;2022-12-07T12:21:49;148154.28;;;7.51;86.45
14885;BME280;7534;50.762;7.000;2022-12-07T12:24:44;148152.97;;;7.50;87.11
14885;BME280;7534;50.762;7.000;2022-12-07T12:27:48;148163.38;;;7.54;86.93
14885;BME280;7534;50.762;7.000;2022-12-07T12:35:00;148189.50;;;7.64;88.18
14885;BME280;7534;50.762;7.000;2022-12-07T12:42:42;148167.31;;;7.56;86.69
14885;BME280;7534;50.762;7.000;2022-12-07T12:45:27;148206.44;;;7.71;85.10
14885;BME280;7534;50.762;7.000;2022-12-07T12:48:42;148167.31;;;7.56;85.06
14885;BME280;7534;50.762;7.000;2022-12-07T13:03:02;148146.44;;;7.48;86.85
14885;BME280;7534;50.762;7.000;2022-12-07T13:09:36;148066.84;;;7.17;88.21
14885;BME280;7534;50.762;7.000;2022-12-07T13:16:41;148036.84;;;7.05;89.88
14885;BME280;7534;50.762;7.000;2022-12-07T13:22:53;148052.50;;;7.11;92.07
14885;BME280;7534;50.762;7.000;2022-12-07T13:26:14;148073.38;;;7.19;92.53
14885;BME280;7534;50.762;7.000;2022-12-07T13:29:38;148145.13;;;7.47;92.09
14885;BME280;7534;50.762;7.000;2022-12-07T13:33:32;148233.88;;;7.82;90.05
14885;BME280;7534;50.762;7.000;2022-12-07T13:36:27;148271.72;;;7.96;89.16
14885;BME280;7534;50.762;7.000;2022-12-07T13:39:45;148222.16;;;7.77;87.26
14885;BME280;7534;50.762;7.000;2022-12-07T13:43:02;148205.16;;;7.71;87.79
14885;BME280;7534;50.762;7.000;2022-12-07T13:45:38;148158.19;;;7.52;87.60
14885;BME280;7534;50.762;7.000;2022-12-07T13:48:47;148185.56;;;7.63;87.44
14885;BME280;7534;50.762;7.000;2022-12-07T13:51:28;148124.25;;;7.39;87.70
14885;BME280;7534;50.762;7.000;2022-12-07T13:54:46;148053.81;;;7.12;89.38
14885;BME280;7534;50.762;7.000;2022-12-07T14:03:41;147975.50;;;6.81;91.63
14885;BME280;7534;50.762;7.000;2022-12-07T14:06:26;147937.69;;;6.67;91.56
14885;BME280;7534;50.762;7.000;2022-12-07T14:09:39;147988.59;;;6.86;92.34
14885;BME280;7534;50.762;7.000;2022-12-07T14:12:15;147970.31;;;6.79;93.16
14885;BME280;7534;50.762;7.000;2022-12-07T14:14:50;147901.19;;;6.53;94.74
14885;BME280;7534;50.762;7.000;2022-12-07T14:17:35;147885.56;;;6.46;94.18
14885;BME280;7534;50.762;7.000;2022-12-07T14:20:03;147866.00;;;6.39;92.42
14885;BME280;7534;50.762;7.000;2022-12-07T14:22:37;147910.34;;;6.56;91.14
14885;BME280;7534;50.762;7.000;2022-12-07T14:27:39;147961.19;;;6.76;91.08
14885;BME280;7534;50.762;7.000;2022-12-07T14:30:16;147932.50;;;6.65;88.63
14885;BME280;7534;50.762;7.000;2022-12-07T14:32:43;147959.88;;;6.75;88.47
14885;BME280;7534;50.762;7.000;2022-12-07T14:35:17;147985.97;;;6.85;88.57
14885;BME280;7534;50.762;7.000;2022-12-07T14:37:47;147995.13;;;6.89;88.59
14885;BME280;7534;50.762;7.000;2022-12-07T14:40:32;148002.91;;;6.92;88.06
14885;BME280;7534;50.762;7.000;2022-12-07T14:43:05;148016.00;;;6.97;87.71
14885;BME280;7534;50.762;7.000;2022-12-07T14:45:32;148008.13;;;6.94;88.64
14885;BME280;7534;50.762;7.000;2022-12-07T14:47:58;147980.72;;;6.83;89.39
14885;BME280;7534;50.762;7.000;2022-12-07T14:50:24;147991.19;;;6.87;90.21
14885;BME280;7534;50.762;7.000;2022-12-07T14:52:55;147948.16;;;6.71;91.15
14885;BME280;7534;50.762;7.000;2022-12-07T14:55:27;147991.19;;;6.87;91.64
14885;BME280;7534;50.762;7.000;2022-12-07T14:57:55;147967.72;;;6.78;92.24
14885;BME280;7534;50.762;7.000;2022-12-07T15:00:26;147961.19;;;6.76;93.12
14885;BME280;7534;50.762;7.000;2022-12-07T15:02:54;148039.41;;;7.06;93.53
14885;BME280;7534;50.762;7.000;2022-12-07T15:05:20;148016.00;;;6.97;93.49
14885;BME280;7534;50.762;7.000;2022-12-07T15:07:48;148022.47;;;7.00;93.97
14885;BME280;7534;50.762;7.000;2022-12-07T15:10:22;147997.69;;;6.90;93.94
14885;BME280;7534;50.762;7.000;2022-12-07T15:12:48;147992.50;;;6.88;94.16
14885;BME280;7534;50.762;7.000;2022-12-07T15:15:14;147976.81;;;6.82;93.89
14885;BME280;7534;50.762;7.000;2022-12-07T15:17:40;147988.59;;;6.86;94.01
14885;BME280;7534;50.762;7.000;2022-12-07T15:20:11;147978.13;;;6.82;94.11
14885;BME280;7534;50.762;7.000;2022-12-07T15:22:37;147974.25;;;6.81;94.09
14885;BME280;7534;50.762;7.000;2022-12-07T15:25:04;147963.78;;;6.77;93.94
14885;BME280;7534;50.762;7.000;2022-12-07T15:27:31;147942.94;;;6.69;94.05
14885;BME280;7534;50.762;7.000;2022-12-07T15:29:57;147901.19;;;6.53;94.61
14885;BME280;7534;50.762;7.000;2022-12-07T15:32:23;147885.56;;;6.46;95.45
14885;BME280;7534;50.762;7.000;2022-12-07T15:34:48;147866.00;;;6.39;96.15
14885;BME280;7534;50.762;7.000;2022-12-07T15:37:15;147843.84;;;6.30;96.92
14885;BME280;7534;50.762;7.000;2022-12-07T15:39:42;147860.78;;;6.37;96.83
14885;BME280;7534;50.762;7.000;2022-12-07T15:42:08;147882.94;;;6.45;96.91
14885;BME280;7534;50.762;7.000;2022-12-07T15:44:33;147893.34;;;6.49;96.39
14885;BME280;7534;50.762;7.000;2022-12-07T15:47:17;147862.09;;;6.37;96.38
14885;BME280;7534;50.762;7.000;2022-12-07T15:49:43;147841.22;;;6.29;97.08
14885;BME280;7534;50.762;7.000;2022-12-07T15:52:09;147864.69;;;6.38;97.08
14885;BME280;7534;50.762;7.000;2022-12-07T15:54:35;147864.69;;;6.38;96.21
14885;BME280;7534;50.762;7.000;2022-12-07T15:57:01;147868.63;;;6.40;96.17
14885;BME280;7534;50.762;7.000;2022-12-07T15:59:28;147862.09;;;6.37;96.10